sensor_id;sensor_type;location;lat;lon;timestamp;temperature;humidity
2022;DHT22;1015;49.756;6.994;2022-12-11T19:04:07;-3.30;99.90
2022;DHT22;1015;49.756;6.994;2022-12-11T19:06:34;-3.20;99.90
2022;DHT22;1015;49.756;6.994;2022-12-11T19:09:03;-3.40;99.90
2022;DHT22;1015;49.756;6.994;2022-12-11T19:11:31;-3.40;99.90
2022;DHT22;1015;49.756;6.994;2022-12-11T19:13:59;-3.40;99.90
2022;DHT22;1015;49.756;6.994;2022-12-11T19:16:28;-3.50;99.90
2022;DHT22;1015;49.756;6.994;2022-12-11T19:18:58;-3.40;99.90
2022;DHT22;1015;49.756;6.994;2022-12-11T19:21:27;-3.40;99.90
2022;DHT22;1015;49.756;6.994;2022-12-11T19:23:54;-3.30;99.90
2022;DHT22;1015;49.756;6.994;2022-12-11T19:26:22;-3.40;99.90
2022;DHT22;1015;49.756;6.994;2022-12-11T19:28:52;-3.40;99.90
2022;DHT22;1015;49.756;6.994;2022-12-11T19:31:22;-3.40;99.90
2022;DHT22;1015;49.756;6.994;2022-12-11T19:33:49;-3.40;99.90
2022;DHT22;1015;49.756;6.994;2022-12-11T19:36:17;-3.40;99.90
2022;DHT22;1015;49.756;6.994;2022-12-11T19:38:47;-3.60;99.90
2022;DHT22;1015;49.756;6.994;2022-12-11T19:41:18;-3.90;99.90
2022;DHT22;1015;49.756;6.994;2022-12-11T19:43:46;-3.80;99.90
2022;DHT22;1015;49.756;6.994;2022-12-11T19:46:14;-4.10;99.90
2022;DHT22;1015;49.756;6.994;2022-12-11T19:48:41;-4.10;99.90
2022;DHT22;1015;49.756;6.994;2022-12-11T19:51:10;-4.20;99.90
2022;DHT22;1015;49.756;6.994;2022-12-11T19:53:39;-4.30;99.90
2022;DHT22;1015;49.756;6.994;2022-12-11T19:56:08;-4.80;99.90
2022;DHT22;1015;49.756;6.994;2022-12-11T19:58:35;-4.40;99.90
2022;DHT22;1015;49.756;6.994;2022-12-11T20:01:03;-4.50;99.90
2022;DHT22;1015;49.756;6.994;2022-12-11T20:03:30;-4.40;99.90
2022;DHT22;1015;49.756;6.994;2022-12-11T20:06:01;-4.80;99.90
2022;DHT22;1015;49.756;6.994;2022-12-11T20:08:28;-4.40;99.90
2022;DHT22;1015;49.756;6.994;2022-12-11T20:10:55;-5.00;99.90
2022;DHT22;1015;49.756;6.994;2022-12-11T20:13:24;-5.10;99.90
2022;DHT22;1015;49.756;6.994;2022-12-11T20:15:51;-5.00;99.90
2022;DHT22;1015;49.756;6.994;2022-12-11T20:18:18;-4.80;99.90
2022;DHT22;1015;49.756;6.994;2022-12-11T20:20:45;-5.30;99.90
2022;DHT22;1015;49.756;6.994;2022-12-11T20:23:12;-5.20;99.90
2022;DHT22;1015;49.756;6.994;2022-12-11T20:25:39;-5.10;99.90
2022;DHT22;1015;49.756;6.994;2022-12-11T20:28:06;-5.00;99.90
2022;DHT22;1015;49.756;6.994;2022-12-11T20:30:34;-5.30;99.90
2022;DHT22;1015;49.756;6.994;2022-12-11T20:33:01;-5.20;99.90
2022;DHT22;1015;49.756;6.994;2022-12-11T20:35:28;-5.20;99.90
2022;DHT22;1015;49.756;6.994;2022-12-11T20:37:55;-5.30;99.90
2022;DHT22;1015;49.756;6.994;2022-12-11T20:40:22;-5.40;99.90
2022;DHT22;1015;49.756;6.994;2022-12-11T20:42:50;-5.50;99.90
2022;DHT22;1015;49.756;6.994;2022-12-11T20:45:17;-5.40;99.90
2022;DHT22;1015;49.756;6.994;2022-12-11T20:47:46;-5.40;99.90
2022;DHT22;1015;49.756;6.994;2022-12-11T20:50:13;-5.20;99.90
2022;DHT22;1015;49.756;6.994;2022-12-11T20:52:40;-5.20;99.90
2022;DHT22;1015;49.756;6.994;2022-12-11T20:55:08;-5.10;99.90
2022;DHT22;1015;49.756;6.994;2022-12-11T20:57:36;-4.90;99.90
2022;DHT22;1015;49.756;6.994;2022-12-11T21:00:04;-4.80;99.90
2022;DHT22;1015;49.756;6.994;2022-12-11T21:02:33;-4.80;99.90
2022;DHT22;1015;49.756;6.994;2022-12-11T21:05:01;-4.60;99.90
2022;DHT22;1015;49.756;6.994;2022-12-11T21:07:29;-4.60;99.90
2022;DHT22;1015;49.756;6.994;2022-12-11T21:09:56;-4.40;99.90
2022;DHT22;1015;49.756;6.994;2022-12-11T21:12:23;-4.30;99.90
2022;DHT22;1015;49.756;6.994;2022-12-11T21:14:49;-4.20;99.90
2022;DHT22;1015;49.756;6.994;2022-12-11T21:17:16;-4.10;99.90
2022;DHT22;1015;49.756;6.994;2022-12-11T21:19:43;-4.00;99.90
2022;DHT22;1015;49.756;6.994;2022-12-11T21:22:12;-3.90;99.90
2022;DHT22;1015;49.756;6.994;2022-12-11T21:24:39;-3.80;99.90
2022;DHT22;1015;49.756;6.994;2022-12-11T21:27:06;-3.60;99.90
2022;DHT22;1015;49.756;6.994;2022-12-11T21:29:33;-3.60;99.90
2022;DHT22;1015;49.756;6.994;2022-12-11T21:32:00;-3.60;99.90
2022;DHT22;1015;49.756;6.994;2022-12-11T21:34:27;-3.50;99.90
2022;DHT22;1015;49.756;6.994;2022-12-11T21:36:54;-3.40;99.90
2022;DHT22;1015;49.756;6.994;2022-12-11T21:39:23;-3.40;99.90
2022;DHT22;1015;49.756;6.994;2022-12-11T21:41:50;-3.40;99.90
2022;DHT22;1015;49.756;6.994;2022-12-11T21:44:17;-3.40;99.90
2022;DHT22;1015;49.756;6.994;2022-12-11T21:46:44;-3.30;99.90
2022;DHT22;1015;49.756;6.994;2022-12-11T21:49:11;-3.30;99.90
2022;DHT22;1015;49.756;6.994;2022-12-11T21:51:39;-3.20;99.90
2022;DHT22;1015;49.756;6.994;2022-12-11T21:54:10;-3.20;99.90
2022;DHT22;1015;49.756;6.994;2022-12-11T21:56:40;-3.20;99.90
2022;DHT22;1015;49.756;6.994;2022-12-11T21:59:07;-3.20;99.90
2022;DHT22;1015;49.756;6.994;2022-12-11T22:01:37;-3.30;99.90
2022;DHT22;1015;49.756;6.994;2022-12-11T22:04:05;-3.40;99.90
2022;DHT22;1015;49.756;6.994;2022-12-11T22:06:33;-3.40;99.90
2022;DHT22;1015;49.756;6.994;2022-12-11T22:09:00;-3.30;99.90
2022;DHT22;1015;49.756;6.994;2022-12-11T22:11:29;-3.30;99.90
2022;DHT22;1015;49.756;6.994;2022-12-11T22:13:57;-3.30;99.90
2022;DHT22;1015;49.756;6.994;2022-12-11T22:16:24;-3.20;99.90
2022;DHT22;1015;49.756;6.994;2022-12-11T22:18:51;-3.30;99.90
2022;DHT22;1015;49.756;6.994;2022-12-11T22:21:18;-3.40;99.90
2022;DHT22;1015;49.756;6.994;2022-12-11T22:23:45;-3.30;99.90
2022;DHT22;1015;49.756;6.994;2022-12-11T22:26:15;-3.30;99.90
2022;DHT22;1015;49.756;6.994;2022-12-11T22:28:42;-3.30;99.90
2022;DHT22;1015;49.756;6.994;2022-12-11T22:31:11;-3.30;99.90
2022;DHT22;1015;49.756;6.994;2022-12-11T22:33:38;-3.20;99.90
2022;DHT22;1015;49.756;6.994;2022-12-11T22:36:06;-3.10;99.90
2022;DHT22;1015;49.756;6.994;2022-12-11T22:38:33;-3.00;99.90
2022;DHT22;1015;49.756;6.994;2022-12-11T22:41:01;-3.10;99.90
2022;DHT22;1015;49.756;6.994;2022-12-11T22:43:29;-3.10;99.90
2022;DHT22;1015;49.756;6.994;2022-12-11T22:45:56;-3.00;99.90
2022;DHT22;1015;49.756;6.994;2022-12-11T22:48:24;-2.90;99.90
2022;DHT22;1015;49.756;6.994;2022-12-11T22:50:52;-3.00;99.90
2022;DHT22;1015;49.756;6.994;2022-12-11T22:53:19;-3.00;99.90
2022;DHT22;1015;49.756;6.994;2022-12-11T22:55:46;-3.00;99.90
2022;DHT22;1015;49.756;6.994;2022-12-11T22:58:13;-2.90;99.90
2022;DHT22;1015;49.756;6.994;2022-12-11T23:00:41;-3.00;99.90
2022;DHT22;1015;49.756;6.994;2022-12-11T23:03:08;-3.00;99.90
2022;DHT22;1015;49.756;6.994;2022-12-11T23:05:38;-3.00;99.90
2022;DHT22;1015;49.756;6.994;2022-12-11T23:08:05;-3.00;99.90
2022;DHT22;1015;49.756;6.994;2022-12-11T23:10:32;-3.00;99.90
2022;DHT22;1015;49.756;6.994;2022-12-11T23:12:59;-3.00;99.90
2022;DHT22;1015;49.756;6.994;2022-12-11T23:15:26;-2.90;99.90
2022;DHT22;1015;49.756;6.994;2022-12-11T23:17:53;-2.90;99.90
2022;DHT22;1015;49.756;6.994;2022-12-11T23:20:20;-2.90;99.90
2022;DHT22;1015;49.756;6.994;2022-12-11T23:22:49;-2.80;99.90
2022;DHT22;1015;49.756;6.994;2022-12-11T23:25:16;-2.90;99.90
2022;DHT22;1015;49.756;6.994;2022-12-11T23:27:43;-2.90;99.90
2022;DHT22;1015;49.756;6.994;2022-12-11T23:30:11;-2.90;99.90
2022;DHT22;1015;49.756;6.994;2022-12-11T23:32:38;-2.90;99.90
2022;DHT22;1015;49.756;6.994;2022-12-11T23:35:06;-2.90;99.90
2022;DHT22;1015;49.756;6.994;2022-12-11T23:37:33;-3.00;99.90
2022;DHT22;1015;49.756;6.994;2022-12-11T23:40:01;-3.00;99.90
2022;DHT22;1015;49.756;6.994;2022-12-11T23:42:28;-3.10;99.90
2022;DHT22;1015;49.756;6.994;2022-12-11T23:44:55;-3.10;99.90
2022;DHT22;1015;49.756;6.994;2022-12-11T23:47:22;-3.10;99.90
2022;DHT22;1015;49.756;6.994;2022-12-11T23:49:49;-3.10;99.90
2022;DHT22;1015;49.756;6.994;2022-12-11T23:52:16;-3.10;99.90
2022;DHT22;1015;49.756;6.994;2022-12-11T23:54:43;-3.10;99.90
2022;DHT22;1015;49.756;6.994;2022-12-11T23:57:11;-3.10;99.90
2022;DHT22;1015;49.756;6.994;2022-12-11T23:59:38;-3.10;99.90
